createdAt,value
2023-05-13T00:01:14.814Z,100.00
2023-05-13T00:03:42.321Z,100.00
2023-05-13T00:06:09.746Z,100.00
2023-05-13T00:08:37.077Z,100.00
2023-05-13T00:11:04.400Z,100.00
2023-05-13T00:13:31.293Z,100.00
2023-05-13T00:15:58.567Z,100.00
2023-05-13T00:18:25.960Z,100.00
2023-05-13T00:20:53.214Z,100.00
2023-05-13T00:23:20.122Z,100.00
2023-05-13T00:25:47.320Z,100.00
2023-05-13T00:28:15.184Z,100.00
2023-05-13T00:30:43.878Z,100.00
2023-05-13T00:33:11.020Z,100.00
2023-05-13T00:35:38.242Z,100.00
2023-05-13T00:38:05.420Z,100.00
2023-05-13T00:40:34.759Z,100.00
2023-05-13T00:43:01.621Z,100.00
2023-05-13T00:45:28.923Z,100.00
2023-05-13T00:47:55.929Z,100.00
2023-05-13T00:50:23.498Z,100.00
2023-05-13T00:52:51.299Z,100.00
2023-05-13T00:55:18.469Z,100.00
2023-05-13T00:57:45.445Z,100.00
2023-05-13T01:00:13.088Z,100.00
2023-05-13T01:02:50.410Z,100.00
2023-05-13T01:05:45.664Z,100.00
2023-05-13T01:08:31.989Z,100.00
2023-05-13T01:11:08.471Z,100.00
2023-05-13T01:13:43.137Z,100.00
2023-05-13T01:16:18.592Z,100.00
2023-05-13T01:18:51.531Z,100.00
2023-05-13T01:21:29.126Z,100.00
2023-05-13T01:23:56.304Z,100.00
2023-05-13T01:26:25.436Z,100.00
2023-05-13T01:28:52.512Z,100.00
2023-05-13T01:31:21.003Z,100.00
2023-05-13T01:33:49.423Z,100.00
2023-05-13T01:36:17.706Z,100.00
2023-05-13T01:38:45.143Z,100.00
2023-05-13T01:41:12.245Z,100.00
2023-05-13T01:43:39.210Z,100.00
2023-05-13T01:46:12.648Z,100.00
2023-05-13T01:48:39.556Z,100.00
2023-05-13T01:51:07.099Z,100.00
2023-05-13T01:53:34.001Z,100.00
2023-05-13T01:56:01.204Z,100.00
2023-05-13T01:58:28.001Z,100.00
2023-05-13T02:00:55.255Z,100.00
2023-05-13T02:03:22.172Z,100.00
2023-05-13T02:05:49.292Z,100.00
2023-05-13T02:08:16.289Z,100.00
2023-05-13T02:10:43.447Z,100.00
2023-05-13T02:13:10.323Z,100.00
2023-05-13T02:15:37.909Z,100.00
2023-05-13T02:18:04.928Z,100.00
2023-05-13T02:20:32.095Z,100.00
2023-05-13T02:22:58.988Z,100.00
2023-05-13T02:25:26.239Z,100.00
2023-05-13T02:27:53.092Z,100.00
2023-05-13T02:30:20.651Z,100.00
2023-05-13T02:32:47.845Z,100.00
2023-05-13T02:35:15.189Z,100.00
2023-05-13T02:37:42.003Z,100.00
2023-05-13T02:40:09.782Z,100.00
2023-05-13T02:42:36.798Z,100.00
2023-05-13T02:45:04.170Z,100.00
2023-05-13T02:47:31.272Z,100.00
2023-05-13T02:49:58.557Z,100.00
2023-05-13T02:52:25.484Z,100.00
2023-05-13T02:54:52.713Z,100.00
2023-05-13T02:57:19.580Z,100.00
2023-05-13T02:59:46.779Z,100.00
2023-05-13T03:02:13.617Z,100.00
2023-05-13T03:04:41.390Z,100.00
2023-05-13T03:07:08.359Z,100.00
2023-05-13T03:09:39.142Z,100.00
2023-05-13T03:12:06.947Z,100.00
2023-05-13T03:14:37.246Z,100.00
2023-05-13T03:17:04.654Z,100.00
2023-05-13T03:19:32.900Z,100.00
2023-05-13T03:21:59.804Z,100.00
2023-05-13T03:24:26.980Z,100.00
2023-05-13T03:26:54.031Z,100.00
2023-05-13T03:29:21.209Z,100.00
2023-05-13T03:31:48.997Z,100.00
2023-05-13T03:34:16.600Z,100.00
2023-05-13T03:36:43.498Z,100.00
2023-05-13T03:39:10.696Z,100.00
2023-05-13T03:41:37.786Z,100.00
2023-05-13T03:44:05.113Z,100.00
2023-05-13T03:46:32.334Z,100.00
2023-05-13T03:48:59.616Z,100.00
2023-05-13T03:51:26.581Z,100.00
2023-05-13T03:53:53.726Z,100.00
2023-05-13T03:56:21.690Z,100.00
2023-05-13T03:58:49.006Z,100.00
2023-05-13T04:01:15.917Z,100.00
2023-05-13T04:03:45.456Z,100.00
2023-05-13T04:06:14.068Z,100.00
2023-05-13T04:08:41.296Z,100.00
2023-05-13T04:11:08.205Z,100.00
2023-05-13T04:13:36.248Z,100.00
2023-05-13T04:16:03.778Z,100.00
2023-05-13T04:18:31.573Z,100.00
2023-05-13T04:20:58.424Z,100.00
2023-05-13T04:23:25.621Z,100.00
2023-05-13T04:25:52.827Z,100.00
2023-05-13T04:28:20.943Z,100.00
2023-05-13T04:30:47.828Z,100.00
2023-05-13T04:33:15.134Z,100.00
2023-05-13T04:35:42.223Z,100.00
2023-05-13T04:38:09.639Z,100.00
2023-05-13T04:40:36.768Z,100.00
2023-05-13T04:43:04.073Z,97.27
2023-05-13T04:45:31.952Z,92.15
2023-05-13T04:47:59.202Z,89.80
2023-05-13T04:50:26.435Z,89.91
2023-05-13T04:52:54.981Z,85.73
2023-05-13T04:55:22.834Z,84.82
2023-05-13T04:57:50.272Z,83.63
2023-05-13T05:00:17.414Z,77.33
2023-05-13T05:02:44.585Z,77.52
2023-05-13T05:05:11.581Z,76.02
2023-05-13T05:07:40.639Z,74.86
2023-05-13T05:10:08.661Z,71.66
2023-05-13T05:12:36.361Z,65.16
2023-05-13T05:15:03.328Z,65.11
2023-05-13T05:17:32.905Z,62.08
2023-05-13T05:19:59.934Z,54.89
2023-05-13T05:22:27.373Z,54.90
2023-05-13T05:24:54.267Z,54.33
2023-05-13T05:27:21.564Z,52.58
2023-05-13T05:29:48.464Z,51.94
2023-05-13T05:32:15.652Z,49.30
2023-05-13T05:34:42.525Z,46.12
2023-05-13T05:37:09.717Z,46.61
2023-05-13T05:39:36.624Z,47.03
2023-05-13T05:42:03.955Z,45.18
2023-05-13T05:44:30.820Z,44.45
2023-05-13T05:46:57.949Z,44.20
2023-05-13T05:49:24.821Z,42.71
2023-05-13T05:51:52.024Z,43.20
2023-05-13T05:54:18.916Z,43.31
2023-05-13T05:56:46.115Z,41.19
2023-05-13T05:59:12.942Z,43.23
2023-05-13T06:01:40.134Z,41.21
2023-05-13T06:04:07.199Z,43.85
2023-05-13T06:06:34.929Z,41.81
2023-05-13T06:09:01.899Z,43.03
2023-05-13T06:11:29.153Z,39.11
2023-05-13T06:13:57.637Z,39.17
2023-05-13T06:16:24.914Z,40.52
2023-05-13T06:18:51.876Z,40.36
2023-05-13T06:21:19.133Z,39.40
2023-05-13T06:23:46.181Z,37.73
2023-05-13T06:26:13.382Z,37.89
2023-05-13T06:28:40.326Z,37.35
2023-05-13T06:31:07.524Z,37.96
2023-05-13T06:33:34.496Z,38.48
2023-05-13T06:36:01.780Z,39.00
2023-05-13T06:38:28.669Z,37.68
2023-05-13T06:40:55.875Z,38.43
2023-05-13T06:43:22.820Z,39.76
2023-05-13T06:45:50.018Z,41.18
2023-05-13T06:48:16.904Z,39.57
2023-05-13T06:50:44.099Z,38.33
2023-05-13T06:53:13.642Z,38.30
2023-05-13T06:55:41.881Z,36.68
2023-05-13T06:58:09.598Z,37.25
2023-05-13T07:00:38.596Z,38.00
2023-05-13T07:03:06.961Z,37.14
2023-05-13T07:05:34.865Z,38.48
2023-05-13T07:08:06.735Z,38.70
2023-05-13T07:10:34.777Z,40.73
2023-05-13T07:13:02.567Z,37.07
2023-05-13T07:15:29.888Z,36.52
2023-05-13T07:17:56.857Z,36.37
2023-05-13T07:20:24.480Z,38.88
2023-05-13T07:22:51.994Z,37.37
2023-05-13T07:25:19.430Z,36.37
2023-05-13T07:27:46.358Z,37.40
2023-05-13T07:30:13.955Z,35.17
2023-05-13T07:32:40.906Z,35.45
2023-05-13T07:35:09.250Z,34.38
2023-05-13T07:37:37.163Z,35.79
2023-05-13T07:40:06.643Z,35.76
2023-05-13T07:42:33.455Z,35.51
2023-05-13T07:45:00.679Z,34.26
2023-05-13T07:47:29.140Z,35.20
2023-05-13T07:49:56.596Z,35.60
2023-05-13T07:52:23.558Z,35.80
2023-05-13T07:54:50.924Z,35.28
2023-05-13T07:57:17.840Z,35.44
2023-05-13T07:59:45.449Z,34.62
2023-05-13T08:02:12.689Z,34.91
2023-05-13T08:04:40.176Z,34.16
2023-05-13T08:07:07.073Z,35.04
2023-05-13T08:09:34.231Z,35.29
2023-05-13T08:12:01.087Z,34.70
2023-05-13T08:14:28.570Z,35.05
2023-05-13T08:16:56.075Z,33.85
2023-05-13T08:19:23.276Z,34.39
2023-05-13T08:21:50.355Z,34.36
2023-05-13T08:24:17.616Z,34.22
2023-05-13T08:26:44.552Z,32.80
2023-05-13T08:29:14.079Z,34.28
2023-05-13T08:31:41.825Z,32.02
2023-05-13T08:34:09.017Z,33.61
2023-05-13T08:36:35.891Z,32.34
2023-05-13T08:39:03.279Z,34.33
2023-05-13T08:41:33.501Z,31.66
2023-05-13T08:44:04.528Z,32.23
2023-05-13T08:46:34.509Z,32.01
2023-05-13T08:49:02.420Z,32.61
2023-05-13T08:51:29.696Z,32.44
2023-05-13T08:53:56.958Z,33.36
2023-05-13T08:56:25.712Z,33.19
2023-05-13T08:58:52.786Z,33.48
2023-05-13T09:01:19.882Z,32.95
2023-05-13T09:04:08.694Z,31.57
2023-05-13T09:06:35.518Z,32.74
2023-05-13T09:09:03.165Z,32.84
2023-05-13T09:11:30.058Z,32.37
2023-05-13T09:14:01.910Z,30.56
2023-05-13T09:16:29.984Z,31.36
2023-05-13T09:19:03.221Z,31.70
2023-05-13T09:21:31.971Z,32.22
2023-05-13T09:24:19.070Z,31.75
2023-05-13T09:26:46.606Z,32.07
2023-05-13T09:29:19.451Z,32.65
2023-05-13T09:31:55.002Z,31.02
2023-05-13T09:34:29.983Z,32.34
2023-05-13T09:37:08.263Z,32.21
2023-05-13T09:39:41.458Z,31.49
2023-05-13T09:42:18.754Z,32.01
2023-05-13T09:44:46.805Z,31.48
2023-05-13T09:47:15.005Z,32.98
2023-05-13T09:49:43.693Z,32.15
2023-05-13T09:52:11.988Z,31.63
2023-05-13T09:54:39.390Z,32.43
2023-05-13T09:57:06.806Z,34.16
2023-05-13T09:59:37.028Z,31.75
2023-05-13T10:02:06.899Z,32.48
2023-05-13T10:04:34.475Z,32.83
2023-05-13T10:07:03.819Z,34.38
2023-05-13T10:09:36.634Z,35.66
2023-05-13T10:12:06.754Z,35.85
2023-05-13T10:14:36.790Z,37.28
2023-05-13T10:17:05.453Z,37.33
2023-05-13T10:19:33.771Z,38.96
2023-05-13T10:22:01.559Z,38.88
2023-05-13T10:24:29.509Z,38.94
2023-05-13T10:26:57.273Z,37.90
2023-05-13T10:29:25.633Z,39.23
2023-05-13T10:31:54.291Z,35.95
2023-05-13T10:34:23.074Z,36.37
2023-05-13T10:37:07.127Z,35.52
2023-05-13T10:39:52.969Z,36.08
2023-05-13T10:43:09.016Z,34.62
2023-05-13T10:45:36.335Z,34.60
2023-05-13T10:48:12.168Z,34.36
2023-05-13T10:50:39.744Z,33.17
2023-05-13T10:53:17.834Z,33.19
2023-05-13T10:55:45.830Z,33.70
2023-05-13T10:58:14.595Z,33.48
2023-05-13T11:00:43.931Z,31.83
2023-05-13T11:03:13.888Z,32.21
2023-05-13T11:05:47.356Z,31.60
2023-05-13T11:08:43.513Z,31.94
2023-05-13T11:11:23.016Z,34.30
2023-05-13T11:13:54.879Z,33.09
2023-05-13T11:16:23.857Z,34.05
2023-05-13T11:18:52.630Z,34.14
2023-05-13T11:21:35.230Z,34.26
2023-05-13T11:24:04.270Z,31.73
2023-05-13T11:26:59.094Z,32.77
2023-05-13T11:29:29.829Z,33.60
2023-05-13T11:32:00.229Z,33.50
2023-05-13T11:34:27.948Z,33.34
2023-05-13T11:37:04.193Z,33.01
2023-05-13T11:39:32.009Z,33.06
2023-05-13T11:42:06.711Z,33.64
2023-05-13T11:44:34.686Z,34.54
2023-05-13T11:47:06.085Z,34.83
2023-05-13T11:49:42.900Z,35.38
2023-05-13T11:52:18.663Z,35.57
2023-05-13T11:54:46.510Z,33.21
2023-05-13T11:57:26.776Z,33.28
2023-05-13T11:59:58.172Z,33.35
2023-05-13T12:02:37.455Z,34.20
2023-05-13T12:05:06.745Z,34.21
2023-05-13T12:07:35.460Z,33.54
2023-05-13T12:10:03.989Z,34.34
2023-05-13T12:12:34.782Z,34.12
2023-05-13T12:15:07.715Z,34.83
2023-05-13T12:17:35.712Z,35.40
2023-05-13T12:20:08.729Z,33.01
2023-05-13T12:22:37.009Z,33.28
2023-05-13T12:25:35.123Z,33.88
2023-05-13T12:28:11.956Z,34.36
2023-05-13T12:30:41.361Z,35.16
2023-05-13T12:33:19.346Z,33.47
2023-05-13T12:35:48.468Z,33.69
2023-05-13T12:38:17.899Z,34.43
2023-05-13T12:40:46.566Z,35.87
2023-05-13T12:43:14.488Z,36.17
2023-05-13T12:45:45.075Z,37.10
2023-05-13T12:48:14.483Z,38.31
2023-05-13T12:50:41.421Z,37.75
2023-05-13T12:53:08.626Z,38.24
2023-05-13T12:55:39.967Z,39.14
2023-05-13T12:58:11.156Z,39.14
2023-05-13T13:00:38.298Z,36.58
2023-05-13T13:03:06.035Z,37.63
2023-05-13T13:05:33.516Z,36.58
2023-05-13T13:08:05.488Z,37.42
2023-05-13T13:10:32.535Z,36.23
2023-05-13T13:12:59.684Z,36.90
2023-05-13T13:15:26.527Z,37.54
2023-05-13T13:17:53.767Z,37.60
2023-05-13T13:20:20.759Z,37.75
2023-05-13T13:22:47.944Z,38.68
2023-05-13T13:25:14.891Z,37.77
2023-05-13T13:27:42.038Z,39.16
2023-05-13T13:30:09.295Z,36.56
2023-05-13T13:32:36.588Z,35.92
2023-05-13T13:35:05.691Z,35.13
2023-05-13T13:37:33.118Z,36.23
2023-05-13T13:40:00.177Z,36.75
2023-05-13T13:42:40.092Z,37.63
2023-05-13T13:45:10.723Z,36.83
2023-05-13T13:47:38.513Z,37.71
2023-05-13T13:50:06.501Z,37.16
2023-05-13T13:52:33.740Z,37.51
2023-05-13T13:55:00.693Z,39.02
2023-05-13T13:57:28.034Z,37.05
2023-05-13T13:59:54.887Z,37.85
2023-05-13T14:02:22.110Z,36.61
2023-05-13T14:04:49.161Z,37.19
2023-05-13T14:07:16.696Z,36.46
2023-05-13T14:09:43.555Z,36.97
2023-05-13T14:12:10.720Z,36.62
2023-05-13T14:14:37.586Z,37.72
2023-05-13T14:17:04.864Z,37.43
2023-05-13T14:19:31.736Z,37.79
2023-05-13T14:21:58.927Z,36.48
2023-05-13T14:24:27.163Z,38.96
2023-05-13T14:26:54.336Z,36.73
2023-05-13T14:29:21.180Z,38.02
2023-05-13T14:31:48.515Z,38.17
2023-05-13T14:34:16.632Z,38.63
2023-05-13T14:36:43.824Z,39.36
2023-05-13T14:39:10.935Z,38.56
2023-05-13T14:41:39.504Z,38.28
2023-05-13T14:44:06.512Z,38.04
2023-05-13T14:46:37.178Z,39.02
2023-05-13T14:49:04.110Z,38.86
2023-05-13T14:51:31.517Z,37.41
2023-05-13T14:53:58.377Z,37.86
2023-05-13T14:56:25.570Z,37.87
2023-05-13T14:58:53.095Z,38.62
2023-05-13T15:01:20.332Z,39.84
2023-05-13T15:03:47.296Z,38.35
2023-05-13T15:06:14.546Z,39.36
2023-05-13T15:08:41.554Z,39.99
2023-05-13T15:11:08.733Z,39.51
2023-05-13T15:13:36.917Z,39.64
2023-05-13T15:16:04.921Z,39.74
2023-05-13T15:18:31.941Z,39.88
2023-05-13T15:20:59.094Z,40.86
2023-05-13T15:23:26.023Z,41.00
2023-05-13T15:25:53.269Z,40.73
2023-05-13T15:28:20.163Z,40.08
2023-05-13T15:30:47.456Z,39.57
2023-05-13T15:33:14.462Z,39.80
2023-05-13T15:35:42.611Z,40.10
2023-05-13T15:38:10.871Z,41.47
2023-05-13T15:40:39.135Z,42.51
2023-05-13T15:43:06.026Z,40.63
2023-05-13T15:45:33.195Z,40.03
2023-05-13T15:48:00.079Z,40.72
2023-05-13T15:50:27.531Z,39.73
2023-05-13T15:52:54.821Z,40.90
2023-05-13T15:55:22.336Z,40.53
2023-05-13T15:57:50.485Z,41.49
2023-05-13T16:00:18.697Z,40.68
2023-05-13T16:02:45.607Z,40.57
2023-05-13T16:05:15.334Z,41.53
2023-05-13T16:07:42.548Z,41.03
2023-05-13T16:10:10.123Z,41.37
2023-05-13T16:12:37.487Z,42.50
2023-05-13T16:15:05.031Z,41.77
2023-05-13T16:17:31.977Z,42.16
2023-05-13T16:20:00.087Z,41.73
2023-05-13T16:22:30.442Z,41.58
2023-05-13T16:25:02.518Z,42.05
2023-05-13T16:27:29.752Z,41.69
2023-05-13T16:29:58.586Z,40.91
2023-05-13T16:32:26.009Z,41.76
2023-05-13T16:34:53.557Z,42.22
2023-05-13T16:37:20.533Z,43.23
2023-05-13T16:39:47.802Z,42.81
2023-05-13T16:42:14.735Z,43.16
2023-05-13T16:44:41.903Z,42.43
2023-05-13T16:47:09.247Z,41.95
2023-05-13T16:49:36.876Z,42.41
2023-05-13T16:52:04.701Z,42.86
2023-05-13T16:54:32.197Z,44.51
2023-05-13T16:56:59.635Z,43.45
2023-05-13T16:59:28.382Z,43.67
2023-05-13T17:01:55.493Z,43.03
2023-05-13T17:04:22.828Z,43.31
2023-05-13T17:06:49.782Z,43.42
2023-05-13T17:09:16.945Z,44.42
2023-05-13T17:11:43.802Z,43.42
2023-05-13T17:14:10.998Z,44.26
2023-05-13T17:16:38.671Z,44.17
2023-05-13T17:19:05.960Z,44.32
2023-05-13T17:21:32.830Z,43.95
2023-05-13T17:24:00.637Z,44.71
2023-05-13T17:26:28.025Z,44.15
2023-05-13T17:28:55.182Z,44.63
2023-05-13T17:31:23.635Z,44.73
2023-05-13T17:33:50.841Z,45.29
2023-05-13T17:36:18.079Z,46.02
2023-05-13T17:38:45.398Z,46.26
2023-05-13T17:41:12.272Z,46.16
2023-05-13T17:43:39.461Z,46.49
2023-05-13T17:46:06.344Z,46.46
2023-05-13T17:48:33.569Z,46.69
2023-05-13T17:51:00.580Z,47.20
2023-05-13T17:53:27.810Z,47.15
2023-05-13T17:55:54.721Z,47.55
2023-05-13T17:58:21.968Z,47.58
2023-05-13T18:00:49.636Z,48.29
2023-05-13T18:03:16.948Z,48.59
2023-05-13T18:05:43.950Z,49.55
2023-05-13T18:08:11.257Z,50.11
2023-05-13T18:10:38.404Z,51.54
2023-05-13T18:13:05.785Z,51.83
2023-05-13T18:15:32.737Z,52.44
2023-05-13T18:18:01.220Z,53.34
2023-05-13T18:20:28.185Z,53.86
2023-05-13T18:22:55.317Z,55.19
2023-05-13T18:25:22.190Z,56.82
2023-05-13T18:27:50.619Z,57.96
2023-05-13T18:30:18.475Z,59.15
2023-05-13T18:32:45.903Z,60.09
2023-05-13T18:35:12.961Z,60.79
2023-05-13T18:37:40.194Z,60.75
2023-05-13T18:40:07.788Z,62.56
2023-05-13T18:42:34.965Z,64.03
2023-05-13T18:45:01.853Z,65.25
2023-05-13T18:47:29.111Z,66.32
2023-05-13T18:49:56.169Z,67.51
2023-05-13T18:52:23.345Z,68.92
2023-05-13T18:54:50.237Z,69.26
2023-05-13T18:57:17.963Z,70.84
2023-05-13T18:59:44.864Z,71.63
2023-05-13T19:02:12.224Z,72.55
2023-05-13T19:04:39.221Z,73.49
2023-05-13T19:07:06.488Z,74.32
2023-05-13T19:09:35.819Z,74.48
2023-05-13T19:12:03.167Z,75.18
2023-05-13T19:14:30.082Z,75.51
2023-05-13T19:16:57.327Z,75.63
2023-05-13T19:19:24.692Z,75.70
2023-05-13T19:21:52.155Z,75.93
2023-05-13T19:24:19.082Z,76.60
2023-05-13T19:26:46.294Z,77.87
2023-05-13T19:29:13.225Z,78.71
2023-05-13T19:31:40.533Z,79.40
2023-05-13T19:34:07.774Z,79.86
2023-05-13T19:36:34.985Z,80.59
2023-05-13T19:39:01.979Z,81.94
2023-05-13T19:41:29.212Z,82.66
2023-05-13T19:43:56.105Z,82.93
2023-05-13T19:46:23.430Z,83.45
2023-05-13T19:48:50.419Z,83.40
2023-05-13T19:51:18.217Z,84.64
2023-05-13T19:53:45.249Z,85.36
2023-05-13T19:56:12.613Z,85.04
2023-05-13T19:58:39.549Z,84.90
2023-05-13T20:01:06.693Z,84.84
2023-05-13T20:03:33.701Z,84.89
2023-05-13T20:06:01.910Z,84.30
2023-05-13T20:08:31.587Z,84.11
2023-05-13T20:10:59.345Z,84.01
2023-05-13T20:13:26.235Z,84.35
2023-05-13T20:15:53.468Z,84.49
2023-05-13T20:18:20.440Z,85.07
2023-05-13T20:20:48.162Z,86.38
2023-05-13T20:23:15.100Z,87.27
2023-05-13T20:25:42.364Z,88.29
2023-05-13T20:28:09.249Z,88.08
2023-05-13T20:30:36.463Z,87.72
2023-05-13T20:33:03.512Z,87.09
2023-05-13T20:35:30.713Z,87.28
2023-05-13T20:37:58.569Z,87.39
2023-05-13T20:40:25.833Z,88.07
2023-05-13T20:42:52.738Z,89.17
2023-05-13T20:45:19.963Z,89.56
2023-05-13T20:47:46.893Z,89.57
2023-05-13T20:50:14.222Z,89.22
2023-05-13T20:52:41.228Z,89.24
2023-05-13T20:55:08.864Z,89.96
2023-05-13T20:57:35.720Z,90.44
2023-05-13T21:00:03.071Z,91.14
2023-05-13T21:02:30.031Z,91.04
2023-05-13T21:04:57.195Z,90.41
2023-05-13T21:07:24.097Z,89.67
2023-05-13T21:09:51.428Z,88.90
2023-05-13T21:12:18.301Z,88.10
2023-05-13T21:14:45.450Z,87.85
2023-05-13T21:17:12.351Z,87.68
2023-05-13T21:19:39.801Z,88.57
2023-05-13T21:22:06.648Z,91.02
2023-05-13T21:24:33.886Z,93.55
2023-05-13T21:27:00.772Z,94.84
2023-05-13T21:29:30.228Z,95.01
2023-05-13T21:31:57.401Z,95.47
2023-05-13T21:34:24.657Z,95.02
2023-05-13T21:36:52.597Z,94.86
2023-05-13T21:39:19.859Z,94.13
2023-05-13T21:41:47.753Z,93.57
2023-05-13T21:44:14.884Z,93.44
2023-05-13T21:46:41.791Z,93.22
2023-05-13T21:49:09.040Z,92.84
2023-05-13T21:51:35.947Z,92.26
2023-05-13T21:54:03.082Z,92.44
2023-05-13T21:56:29.897Z,91.97
2023-05-13T21:58:57.094Z,91.90
2023-05-13T22:01:24.054Z,93.29
2023-05-13T22:03:51.383Z,95.36
2023-05-13T22:06:18.212Z,97.38
2023-05-13T22:08:45.798Z,99.64
2023-05-13T22:11:12.755Z,100.00
2023-05-13T22:13:40.063Z,100.00
2023-05-13T22:16:07.125Z,100.00
2023-05-13T22:18:34.673Z,100.00
2023-05-13T22:21:01.805Z,100.00
2023-05-13T22:23:28.980Z,100.00
2023-05-13T22:25:55.897Z,100.00
2023-05-13T22:28:23.106Z,100.00
2023-05-13T22:30:52.886Z,100.00
2023-05-13T22:33:20.075Z,100.00
2023-05-13T22:35:47.336Z,100.00
2023-05-13T22:38:14.567Z,100.00
2023-05-13T22:40:41.569Z,100.00
2023-05-13T22:43:08.755Z,100.00
2023-05-13T22:45:36.938Z,100.00
2023-05-13T22:48:04.256Z,100.00
2023-05-13T22:50:31.184Z,100.00
2023-05-13T22:52:58.334Z,100.00
2023-05-13T22:55:25.223Z,100.00
2023-05-13T22:57:52.384Z,100.00
2023-05-13T23:00:19.265Z,100.00
2023-05-13T23:02:46.486Z,100.00
2023-05-13T23:05:13.528Z,100.00
2023-05-13T23:07:40.671Z,100.00
2023-05-13T23:10:07.995Z,100.00
2023-05-13T23:12:35.222Z,100.00
2023-05-13T23:15:02.241Z,100.00
2023-05-13T23:17:29.829Z,100.00
2023-05-13T23:19:56.741Z,100.00
2023-05-13T23:22:23.923Z,100.00
2023-05-13T23:24:50.883Z,100.00
2023-05-13T23:27:18.128Z,100.00
2023-05-13T23:29:45.076Z,100.00
2023-05-13T23:32:12.370Z,100.00
2023-05-13T23:34:39.285Z,100.00
2023-05-13T23:37:06.586Z,100.00
2023-05-13T23:39:33.500Z,100.00
2023-05-13T23:42:00.641Z,100.00
2023-05-13T23:44:28.808Z,100.00
2023-05-13T23:46:55.950Z,100.00
2023-05-13T23:49:22.915Z,100.00
2023-05-13T23:51:50.056Z,100.00
2023-05-13T23:54:16.938Z,100.00
2023-05-13T23:56:44.104Z,100.00
2023-05-13T23:59:11.173Z,100.00
